weather.gov     
National Weather Service

Terminal Aerodrome Forecast
NWS Homepage
This page is being discontinued on March 12, 2014.
The same data is available at this site. Please update your bookmarks.
Thank you, and we apologize for the inconvenience.
Please send an email to SR-SRH.Webmaster@noaa.gov with any concerns.


Current Version
Previous Version:    01  02  03  04  05  06  07  08  09  10  11  12  13  14  15  16  17  18  19  20  21  22  23  24  25  26  27  28  29  30  
   31  32  33  34  35  36  37  38  39  40  41  42  43  44  45  46  47  48  49  
[Printable]
676
FTUS43 KBIS 010500
TAFMOT
TAF
KMOT 010535Z 0106/0206 34008KT P6SM -SHRA BKN006 OVC014
      TEMPO 0106/0109 3SM -SHRA BR OVC003
     FM010900 28009KT 3SM BR VCSH OVC005
      TEMPO 0109/0113 6SM BR OVC012
     FM011300 25012KT P6SM VCSH BKN012 BKN025
     FM011600 27018G24KT P6SM BKN025
     FM011900 27022G30KT P6SM BKN035 BKN080
     FM020100 26012KT P6SM BKN040=


U.S. Dept. of Commerce
NOAA National Weather Service
1325 East West Highway
Silver Spring, MD 20910
E-mail: w-nws.webmaster@noaa.gov
Page last modified: May 16, 2007
NATIONAL WEATHER SERVICE: for Safety, for Work, for Fun - FOR LIFE